sensor_id;sensor_type;location;lat;lon;timestamp;P1;durP1;ratioP1;P2;durP2;ratioP2
15425;SDS011;7812;50.072;7.036;2022-08-11T00:01:04;2.60;;;2.10;;
15425;SDS011;7812;50.072;7.036;2022-08-11T00:03:42;1.97;;;1.87;;
15425;SDS011;7812;50.072;7.036;2022-08-11T00:06:12;2.63;;;1.83;;
15425;SDS011;7812;50.072;7.036;2022-08-11T00:08:48;2.30;;;2.10;;
15425;SDS011;7812;50.072;7.036;2022-08-11T00:11:15;2.20;;;2.00;;
15425;SDS011;7812;50.072;7.036;2022-08-11T00:13:42;3.17;;;2.20;;
15425;SDS011;7812;50.072;7.036;2022-08-11T00:16:16;2.70;;;2.37;;
15425;SDS011;7812;50.072;7.036;2022-08-11T00:18:48;2.40;;;2.10;;
15425;SDS011;7812;50.072;7.036;2022-08-11T00:21:15;2.30;;;2.10;;
15425;SDS011;7812;50.072;7.036;2022-08-11T00:23:43;2.30;;;2.03;;
15425;SDS011;7812;50.072;7.036;2022-08-11T00:26:11;3.90;;;2.00;;
15425;SDS011;7812;50.072;7.036;2022-08-11T00:28:38;3.03;;;2.30;;
15425;SDS011;7812;50.072;7.036;2022-08-11T00:31:07;2.80;;;1.97;;
15425;SDS011;7812;50.072;7.036;2022-08-11T00:33:40;2.93;;;2.17;;
15425;SDS011;7812;50.072;7.036;2022-08-11T00:36:08;2.37;;;2.17;;
15425;SDS011;7812;50.072;7.036;2022-08-11T00:38:37;2.43;;;2.10;;
15425;SDS011;7812;50.072;7.036;2022-08-11T00:44:26;3.27;;;2.20;;
15425;SDS011;7812;50.072;7.036;2022-08-11T00:47:14;2.30;;;2.10;;
15425;SDS011;7812;50.072;7.036;2022-08-11T00:49:57;2.87;;;2.57;;
15425;SDS011;7812;50.072;7.036;2022-08-11T00:58:07;4.33;;;2.00;;
15425;SDS011;7812;50.072;7.036;2022-08-11T01:03:17;2.50;;;2.20;;
15425;SDS011;7812;50.072;7.036;2022-08-11T01:06:18;3.63;;;2.30;;
15425;SDS011;7812;50.072;7.036;2022-08-11T01:11:52;3.30;;;2.30;;
15425;SDS011;7812;50.072;7.036;2022-08-11T01:39:56;2.50;;;2.30;;
15425;SDS011;7812;50.072;7.036;2022-08-11T01:48:43;3.07;;;2.70;;
15425;SDS011;7812;50.072;7.036;2022-08-11T01:59:27;3.73;;;2.03;;
15425;SDS011;7812;50.072;7.036;2022-08-11T02:04:53;4.70;;;2.67;;
15425;SDS011;7812;50.072;7.036;2022-08-11T02:07:32;2.40;;;2.20;;
15425;SDS011;7812;50.072;7.036;2022-08-11T02:10:13;2.77;;;2.57;;
15425;SDS011;7812;50.072;7.036;2022-08-11T02:15:46;3.03;;;2.33;;
15425;SDS011;7812;50.072;7.036;2022-08-11T02:21:43;3.17;;;2.87;;
15425;SDS011;7812;50.072;7.036;2022-08-11T02:24:40;2.70;;;2.50;;
15425;SDS011;7812;50.072;7.036;2022-08-11T02:27:19;2.73;;;2.53;;
15425;SDS011;7812;50.072;7.036;2022-08-11T02:30:03;2.27;;;2.17;;
15425;SDS011;7812;50.072;7.036;2022-08-11T02:32:40;2.43;;;2.30;;
15425;SDS011;7812;50.072;7.036;2022-08-11T02:41:27;2.60;;;2.40;;
15425;SDS011;7812;50.072;7.036;2022-08-11T02:44:31;3.40;;;2.60;;
15425;SDS011;7812;50.072;7.036;2022-08-11T02:49:41;3.77;;;2.83;;
15425;SDS011;7812;50.072;7.036;2022-08-11T02:52:24;2.83;;;2.20;;
15425;SDS011;7812;50.072;7.036;2022-08-11T03:01:16;2.57;;;2.37;;
15425;SDS011;7812;50.072;7.036;2022-08-11T03:03:56;3.30;;;2.60;;
15425;SDS011;7812;50.072;7.036;2022-08-11T03:06:49;2.90;;;2.67;;
15425;SDS011;7812;50.072;7.036;2022-08-11T03:09:41;5.40;;;2.60;;
15425;SDS011;7812;50.072;7.036;2022-08-11T03:12:17;3.27;;;2.43;;
15425;SDS011;7812;50.072;7.036;2022-08-11T03:18:41;2.67;;;2.47;;
15425;SDS011;7812;50.072;7.036;2022-08-11T03:21:34;3.77;;;2.70;;
15425;SDS011;7812;50.072;7.036;2022-08-11T03:24:10;3.40;;;3.10;;
15425;SDS011;7812;50.072;7.036;2022-08-11T03:26:47;3.30;;;2.73;;
15425;SDS011;7812;50.072;7.036;2022-08-11T03:29:46;3.70;;;2.63;;
15425;SDS011;7812;50.072;7.036;2022-08-11T03:36:04;3.37;;;3.10;;
15425;SDS011;7812;50.072;7.036;2022-08-11T03:38:46;3.13;;;2.83;;
15425;SDS011;7812;50.072;7.036;2022-08-11T03:41:52;2.83;;;2.63;;
15425;SDS011;7812;50.072;7.036;2022-08-11T03:44:42;3.33;;;3.03;;
15425;SDS011;7812;50.072;7.036;2022-08-11T03:47:46;2.67;;;2.47;;
15425;SDS011;7812;50.072;7.036;2022-08-11T04:04:47;3.30;;;3.00;;
15425;SDS011;7812;50.072;7.036;2022-08-11T04:29:59;3.00;;;2.70;;
15425;SDS011;7812;50.072;7.036;2022-08-11T04:38:17;3.43;;;3.13;;
15425;SDS011;7812;50.072;7.036;2022-08-11T04:41:16;4.90;;;3.40;;
15425;SDS011;7812;50.072;7.036;2022-08-11T04:49:34;3.47;;;3.17;;
15425;SDS011;7812;50.072;7.036;2022-08-11T04:52:27;3.80;;;3.37;;
15425;SDS011;7812;50.072;7.036;2022-08-11T05:13:48;4.10;;;3.43;;
15425;SDS011;7812;50.072;7.036;2022-08-11T05:16:49;3.17;;;2.93;;
15425;SDS011;7812;50.072;7.036;2022-08-11T05:19:42;3.63;;;3.33;;
15425;SDS011;7812;50.072;7.036;2022-08-11T05:22:29;3.80;;;3.40;;
15425;SDS011;7812;50.072;7.036;2022-08-11T05:25:16;3.70;;;3.40;;
15425;SDS011;7812;50.072;7.036;2022-08-11T05:28:15;4.33;;;3.00;;
15425;SDS011;7812;50.072;7.036;2022-08-11T05:31:13;3.23;;;2.97;;
15425;SDS011;7812;50.072;7.036;2022-08-11T05:36:58;3.63;;;3.20;;
15425;SDS011;7812;50.072;7.036;2022-08-11T05:39:30;3.93;;;2.80;;
15425;SDS011;7812;50.072;7.036;2022-08-11T05:42:22;3.60;;;3.13;;
15425;SDS011;7812;50.072;7.036;2022-08-11T05:45:10;3.10;;;2.87;;
15425;SDS011;7812;50.072;7.036;2022-08-11T05:47:57;3.53;;;2.80;;
15425;SDS011;7812;50.072;7.036;2022-08-11T05:50:49;3.93;;;2.93;;
15425;SDS011;7812;50.072;7.036;2022-08-11T05:53:34;4.30;;;3.30;;
15425;SDS011;7812;50.072;7.036;2022-08-11T05:56:28;2.93;;;2.73;;
15425;SDS011;7812;50.072;7.036;2022-08-11T05:58:55;3.30;;;2.70;;
15425;SDS011;7812;50.072;7.036;2022-08-11T06:01:26;4.50;;;2.90;;
15425;SDS011;7812;50.072;7.036;2022-08-11T06:03:55;4.33;;;2.73;;
15425;SDS011;7812;50.072;7.036;2022-08-11T06:06:51;3.33;;;2.73;;
15425;SDS011;7812;50.072;7.036;2022-08-11T06:09:27;3.17;;;2.40;;
15425;SDS011;7812;50.072;7.036;2022-08-11T06:12:05;6.10;;;2.67;;
15425;SDS011;7812;50.072;7.036;2022-08-11T06:14:33;3.43;;;2.63;;
15425;SDS011;7812;50.072;7.036;2022-08-11T06:17:05;2.53;;;2.33;;
15425;SDS011;7812;50.072;7.036;2022-08-11T06:19:34;4.00;;;2.60;;
15425;SDS011;7812;50.072;7.036;2022-08-11T06:22:05;3.30;;;2.60;;
15425;SDS011;7812;50.072;7.036;2022-08-11T06:24:33;3.00;;;2.50;;
15425;SDS011;7812;50.072;7.036;2022-08-11T06:27:02;4.47;;;2.50;;
15425;SDS011;7812;50.072;7.036;2022-08-11T06:29:30;3.80;;;2.33;;
15425;SDS011;7812;50.072;7.036;2022-08-11T06:31:59;5.40;;;2.57;;
15425;SDS011;7812;50.072;7.036;2022-08-11T06:40:15;3.00;;;2.70;;
15425;SDS011;7812;50.072;7.036;2022-08-11T06:43:44;2.27;;;2.07;;
15425;SDS011;7812;50.072;7.036;2022-08-11T06:46:23;4.43;;;2.77;;
15425;SDS011;7812;50.072;7.036;2022-08-11T06:49:04;3.37;;;2.20;;
15425;SDS011;7812;50.072;7.036;2022-08-11T06:51:52;3.00;;;2.10;;
15425;SDS011;7812;50.072;7.036;2022-08-11T06:54:20;3.77;;;2.40;;
15425;SDS011;7812;50.072;7.036;2022-08-11T06:56:47;2.10;;;1.90;;
15425;SDS011;7812;50.072;7.036;2022-08-11T06:59:32;2.30;;;2.10;;
15425;SDS011;7812;50.072;7.036;2022-08-11T07:02:23;3.10;;;2.03;;
15425;SDS011;7812;50.072;7.036;2022-08-11T07:10:45;3.83;;;2.23;;
15425;SDS011;7812;50.072;7.036;2022-08-11T07:13:50;2.87;;;1.80;;
15425;SDS011;7812;50.072;7.036;2022-08-11T07:16:36;2.30;;;2.10;;
15425;SDS011;7812;50.072;7.036;2022-08-11T07:19:06;3.07;;;2.27;;
15425;SDS011;7812;50.072;7.036;2022-08-11T07:21:51;3.77;;;2.20;;
15425;SDS011;7812;50.072;7.036;2022-08-11T07:24:58;3.20;;;2.10;;
15425;SDS011;7812;50.072;7.036;2022-08-11T07:27:52;3.37;;;2.60;;
15425;SDS011;7812;50.072;7.036;2022-08-11T07:30:42;2.80;;;1.97;;
15425;SDS011;7812;50.072;7.036;2022-08-11T07:33:09;4.40;;;2.13;;
15425;SDS011;7812;50.072;7.036;2022-08-11T07:35:44;3.90;;;2.00;;
15425;SDS011;7812;50.072;7.036;2022-08-11T07:38:18;2.23;;;1.90;;
15425;SDS011;7812;50.072;7.036;2022-08-11T07:40:47;4.17;;;1.80;;
15425;SDS011;7812;50.072;7.036;2022-08-11T07:43:13;3.87;;;2.20;;
15425;SDS011;7812;50.072;7.036;2022-08-11T07:45:43;3.13;;;2.07;;
15425;SDS011;7812;50.072;7.036;2022-08-11T07:48:29;2.20;;;2.00;;
15425;SDS011;7812;50.072;7.036;2022-08-11T07:51:17;2.33;;;2.13;;
15425;SDS011;7812;50.072;7.036;2022-08-11T07:54:03;4.60;;;2.10;;
15425;SDS011;7812;50.072;7.036;2022-08-11T07:56:34;3.10;;;1.93;;
15425;SDS011;7812;50.072;7.036;2022-08-11T07:59:01;2.50;;;2.10;;
15425;SDS011;7812;50.072;7.036;2022-08-11T08:01:48;2.90;;;2.03;;
15425;SDS011;7812;50.072;7.036;2022-08-11T08:04:34;2.67;;;1.80;;
15425;SDS011;7812;50.072;7.036;2022-08-11T08:07:19;3.13;;;2.00;;
15425;SDS011;7812;50.072;7.036;2022-08-11T08:10:07;3.03;;;1.80;;
15425;SDS011;7812;50.072;7.036;2022-08-11T08:12:53;4.07;;;1.90;;
15425;SDS011;7812;50.072;7.036;2022-08-11T08:15:38;4.13;;;2.00;;
15425;SDS011;7812;50.072;7.036;2022-08-11T08:18:23;4.87;;;2.20;;
15425;SDS011;7812;50.072;7.036;2022-08-11T08:20:49;2.43;;;1.97;;
15425;SDS011;7812;50.072;7.036;2022-08-11T08:23:19;1.83;;;1.60;;
15425;SDS011;7812;50.072;7.036;2022-08-11T08:25:57;3.00;;;2.03;;
15425;SDS011;7812;50.072;7.036;2022-08-11T08:28:25;3.87;;;2.20;;
15425;SDS011;7812;50.072;7.036;2022-08-11T08:30:52;2.80;;;2.13;;
15425;SDS011;7812;50.072;7.036;2022-08-11T08:36:00;2.67;;;2.00;;
15425;SDS011;7812;50.072;7.036;2022-08-11T08:38:45;2.50;;;1.70;;
15425;SDS011;7812;50.072;7.036;2022-08-11T08:41:13;2.13;;;1.77;;
15425;SDS011;7812;50.072;7.036;2022-08-11T08:43:44;3.80;;;2.10;;
15425;SDS011;7812;50.072;7.036;2022-08-11T08:46:14;4.23;;;1.90;;
15425;SDS011;7812;50.072;7.036;2022-08-11T08:48:45;2.20;;;2.00;;
15425;SDS011;7812;50.072;7.036;2022-08-11T08:51:12;4.47;;;2.00;;
15425;SDS011;7812;50.072;7.036;2022-08-11T08:53:59;2.10;;;1.90;;
15425;SDS011;7812;50.072;7.036;2022-08-11T08:56:44;2.80;;;2.10;;
15425;SDS011;7812;50.072;7.036;2022-08-11T08:59:12;3.40;;;2.03;;
15425;SDS011;7812;50.072;7.036;2022-08-11T09:01:42;3.40;;;1.90;;
15425;SDS011;7812;50.072;7.036;2022-08-11T09:04:13;2.50;;;2.27;;
15425;SDS011;7812;50.072;7.036;2022-08-11T09:06:40;3.07;;;2.43;;
15425;SDS011;7812;50.072;7.036;2022-08-11T09:09:09;2.60;;;2.40;;
15425;SDS011;7812;50.072;7.036;2022-08-11T09:11:39;5.50;;;2.50;;
15425;SDS011;7812;50.072;7.036;2022-08-11T09:17:14;2.80;;;2.50;;
15425;SDS011;7812;50.072;7.036;2022-08-11T09:19:42;3.47;;;2.20;;
15425;SDS011;7812;50.072;7.036;2022-08-11T09:22:10;2.80;;;2.07;;
15425;SDS011;7812;50.072;7.036;2022-08-11T09:24:55;2.77;;;2.30;;
15425;SDS011;7812;50.072;7.036;2022-08-11T09:27:40;2.57;;;2.03;;
15425;SDS011;7812;50.072;7.036;2022-08-11T09:30:06;2.57;;;2.00;;
15425;SDS011;7812;50.072;7.036;2022-08-11T09:32:35;2.30;;;2.10;;
15425;SDS011;7812;50.072;7.036;2022-08-11T09:35:03;2.73;;;2.20;;
15425;SDS011;7812;50.072;7.036;2022-08-11T09:37:29;2.97;;;2.20;;
15425;SDS011;7812;50.072;7.036;2022-08-11T09:40:16;2.63;;;2.13;;
15425;SDS011;7812;50.072;7.036;2022-08-11T09:42:55;2.70;;;2.20;;
15425;SDS011;7812;50.072;7.036;2022-08-11T09:45:47;3.97;;;1.77;;
15425;SDS011;7812;50.072;7.036;2022-08-11T09:48:16;2.30;;;1.77;;
15425;SDS011;7812;50.072;7.036;2022-08-11T09:50:49;2.43;;;1.83;;
15425;SDS011;7812;50.072;7.036;2022-08-11T09:53:24;4.47;;;1.80;;
15425;SDS011;7812;50.072;7.036;2022-08-11T09:55:52;2.00;;;1.80;;
15425;SDS011;7812;50.072;7.036;2022-08-11T09:58:18;4.90;;;1.87;;
15425;SDS011;7812;50.072;7.036;2022-08-11T10:00:47;2.23;;;2.00;;
15425;SDS011;7812;50.072;7.036;2022-08-11T10:03:25;2.47;;;1.87;;
15425;SDS011;7812;50.072;7.036;2022-08-11T10:05:53;3.07;;;2.00;;
15425;SDS011;7812;50.072;7.036;2022-08-11T10:08:41;2.80;;;2.17;;
15425;SDS011;7812;50.072;7.036;2022-08-11T10:11:08;2.47;;;1.83;;
15425;SDS011;7812;50.072;7.036;2022-08-11T10:13:39;1.90;;;1.80;;
15425;SDS011;7812;50.072;7.036;2022-08-11T10:16:27;6.30;;;1.67;;
15425;SDS011;7812;50.072;7.036;2022-08-11T10:18:59;2.60;;;1.77;;
15425;SDS011;7812;50.072;7.036;2022-08-11T10:24:02;2.00;;;1.80;;
15425;SDS011;7812;50.072;7.036;2022-08-11T10:26:48;3.80;;;1.87;;
15425;SDS011;7812;50.072;7.036;2022-08-11T10:32:23;3.17;;;1.90;;
15425;SDS011;7812;50.072;7.036;2022-08-11T10:35:09;2.40;;;1.97;;
15425;SDS011;7812;50.072;7.036;2022-08-11T10:37:38;2.30;;;2.07;;
15425;SDS011;7812;50.072;7.036;2022-08-11T10:40:17;2.47;;;1.67;;
15425;SDS011;7812;50.072;7.036;2022-08-11T10:42:46;1.90;;;1.80;;
15425;SDS011;7812;50.072;7.036;2022-08-11T10:45:34;2.00;;;1.80;;
15425;SDS011;7812;50.072;7.036;2022-08-11T10:48:20;2.20;;;2.00;;
15425;SDS011;7812;50.072;7.036;2022-08-11T10:50:48;2.50;;;2.30;;
15425;SDS011;7812;50.072;7.036;2022-08-11T10:53:35;3.43;;;2.50;;
15425;SDS011;7812;50.072;7.036;2022-08-11T10:56:20;2.70;;;2.50;;
15425;SDS011;7812;50.072;7.036;2022-08-11T10:59:07;5.70;;;2.50;;
15425;SDS011;7812;50.072;7.036;2022-08-11T11:01:43;2.40;;;2.20;;
15425;SDS011;7812;50.072;7.036;2022-08-11T11:04:13;2.53;;;2.37;;
15425;SDS011;7812;50.072;7.036;2022-08-11T11:09:41;2.20;;;2.00;;
15425;SDS011;7812;50.072;7.036;2022-08-11T11:15:21;2.53;;;1.80;;
15425;SDS011;7812;50.072;7.036;2022-08-11T11:18:08;2.03;;;1.67;;
15425;SDS011;7812;50.072;7.036;2022-08-11T11:21:14;2.90;;;1.60;;
15425;SDS011;7812;50.072;7.036;2022-08-11T11:26:33;2.80;;;1.80;;
15425;SDS011;7812;50.072;7.036;2022-08-11T11:37:55;3.60;;;1.80;;
15425;SDS011;7812;50.072;7.036;2022-08-11T11:40:22;3.47;;;1.93;;
15425;SDS011;7812;50.072;7.036;2022-08-11T11:42:50;1.87;;;1.60;;
15425;SDS011;7812;50.072;7.036;2022-08-11T11:45:18;3.50;;;1.70;;
15425;SDS011;7812;50.072;7.036;2022-08-11T11:47:48;3.57;;;1.70;;
15425;SDS011;7812;50.072;7.036;2022-08-11T11:50:20;3.77;;;1.87;;
15425;SDS011;7812;50.072;7.036;2022-08-11T11:52:51;2.63;;;1.87;;
15425;SDS011;7812;50.072;7.036;2022-08-11T11:55:23;2.37;;;1.50;;
15425;SDS011;7812;50.072;7.036;2022-08-11T11:57:53;2.87;;;1.60;;
15425;SDS011;7812;50.072;7.036;2022-08-11T12:00:38;2.43;;;1.43;;
15425;SDS011;7812;50.072;7.036;2022-08-11T12:03:23;2.87;;;1.57;;
15425;SDS011;7812;50.072;7.036;2022-08-11T12:05:51;2.67;;;1.77;;
15425;SDS011;7812;50.072;7.036;2022-08-11T12:08:17;4.20;;;1.80;;
15425;SDS011;7812;50.072;7.036;2022-08-11T12:10:55;1.77;;;1.63;;
15425;SDS011;7812;50.072;7.036;2022-08-11T12:13:43;2.40;;;2.00;;
15425;SDS011;7812;50.072;7.036;2022-08-11T12:16:12;2.87;;;1.50;;
15425;SDS011;7812;50.072;7.036;2022-08-11T12:18:40;2.00;;;1.70;;
15425;SDS011;7812;50.072;7.036;2022-08-11T12:21:07;2.10;;;1.60;;
15425;SDS011;7812;50.072;7.036;2022-08-11T12:23:35;2.80;;;1.70;;
15425;SDS011;7812;50.072;7.036;2022-08-11T12:26:21;1.80;;;1.50;;
15425;SDS011;7812;50.072;7.036;2022-08-11T12:29:07;2.77;;;1.60;;
15425;SDS011;7812;50.072;7.036;2022-08-11T12:31:36;7.40;;;1.80;;
15425;SDS011;7812;50.072;7.036;2022-08-11T12:34:04;2.03;;;1.30;;
15425;SDS011;7812;50.072;7.036;2022-08-11T12:36:36;2.93;;;1.60;;
15425;SDS011;7812;50.072;7.036;2022-08-11T12:39:08;2.83;;;1.77;;
15425;SDS011;7812;50.072;7.036;2022-08-11T12:41:36;3.73;;;1.70;;
15425;SDS011;7812;50.072;7.036;2022-08-11T12:44:23;3.13;;;1.70;;
15425;SDS011;7812;50.072;7.036;2022-08-11T12:47:10;2.63;;;1.60;;
15425;SDS011;7812;50.072;7.036;2022-08-11T12:49:41;2.87;;;1.60;;
15425;SDS011;7812;50.072;7.036;2022-08-11T12:52:29;2.33;;;1.77;;
15425;SDS011;7812;50.072;7.036;2022-08-11T12:58:06;1.67;;;1.40;;
15425;SDS011;7812;50.072;7.036;2022-08-11T13:00:41;2.00;;;1.43;;
15425;SDS011;7812;50.072;7.036;2022-08-11T13:03:29;4.63;;;2.10;;
15425;SDS011;7812;50.072;7.036;2022-08-11T13:06:16;3.60;;;1.70;;
15425;SDS011;7812;50.072;7.036;2022-08-11T13:08:43;3.57;;;1.70;;
15425;SDS011;7812;50.072;7.036;2022-08-11T13:11:10;7.13;;;1.80;;
15425;SDS011;7812;50.072;7.036;2022-08-11T13:13:56;1.90;;;1.70;;
15425;SDS011;7812;50.072;7.036;2022-08-11T13:16:27;4.10;;;1.53;;
15425;SDS011;7812;50.072;7.036;2022-08-11T13:19:01;1.80;;;1.50;;
15425;SDS011;7812;50.072;7.036;2022-08-11T13:21:27;2.43;;;1.50;;
15425;SDS011;7812;50.072;7.036;2022-08-11T13:23:53;2.30;;;1.90;;
15425;SDS011;7812;50.072;7.036;2022-08-11T13:26:23;2.87;;;1.93;;
15425;SDS011;7812;50.072;7.036;2022-08-11T13:28:49;3.33;;;1.87;;
15425;SDS011;7812;50.072;7.036;2022-08-11T13:31:16;2.60;;;1.70;;
15425;SDS011;7812;50.072;7.036;2022-08-11T13:33:46;1.70;;;1.60;;
15425;SDS011;7812;50.072;7.036;2022-08-11T13:36:18;1.87;;;1.70;;
15425;SDS011;7812;50.072;7.036;2022-08-11T13:38:46;1.80;;;1.70;;
15425;SDS011;7812;50.072;7.036;2022-08-11T13:41:13;1.80;;;1.70;;
15425;SDS011;7812;50.072;7.036;2022-08-11T13:43:58;2.03;;;1.80;;
15425;SDS011;7812;50.072;7.036;2022-08-11T13:46:24;3.13;;;1.93;;
15425;SDS011;7812;50.072;7.036;2022-08-11T13:48:53;2.40;;;1.80;;
15425;SDS011;7812;50.072;7.036;2022-08-11T13:51:22;3.10;;;1.70;;
15425;SDS011;7812;50.072;7.036;2022-08-11T13:54:02;2.33;;;1.63;;
15425;SDS011;7812;50.072;7.036;2022-08-11T13:56:41;3.93;;;1.70;;
15425;SDS011;7812;50.072;7.036;2022-08-11T13:59:10;1.70;;;1.60;;
15425;SDS011;7812;50.072;7.036;2022-08-11T14:01:40;2.83;;;2.03;;
15425;SDS011;7812;50.072;7.036;2022-08-11T14:04:10;3.63;;;2.27;;
15425;SDS011;7812;50.072;7.036;2022-08-11T14:06:40;2.93;;;1.77;;
15425;SDS011;7812;50.072;7.036;2022-08-11T14:09:19;3.30;;;2.20;;
15425;SDS011;7812;50.072;7.036;2022-08-11T14:11:51;3.23;;;1.80;;
15425;SDS011;7812;50.072;7.036;2022-08-11T14:14:40;2.23;;;1.93;;
15425;SDS011;7812;50.072;7.036;2022-08-11T14:17:11;2.07;;;1.63;;
15425;SDS011;7812;50.072;7.036;2022-08-11T14:19:40;2.40;;;1.80;;
15425;SDS011;7812;50.072;7.036;2022-08-11T14:22:12;5.90;;;2.00;;
15425;SDS011;7812;50.072;7.036;2022-08-11T14:27:28;4.67;;;1.90;;
15425;SDS011;7812;50.072;7.036;2022-08-11T14:29:55;1.83;;;1.73;;
15425;SDS011;7812;50.072;7.036;2022-08-11T14:32:22;2.97;;;1.80;;
15425;SDS011;7812;50.072;7.036;2022-08-11T14:34:49;3.40;;;1.90;;
15425;SDS011;7812;50.072;7.036;2022-08-11T14:37:18;2.50;;;1.90;;
15425;SDS011;7812;50.072;7.036;2022-08-11T14:39:47;3.37;;;2.20;;
15425;SDS011;7812;50.072;7.036;2022-08-11T14:42:17;3.03;;;1.87;;
15425;SDS011;7812;50.072;7.036;2022-08-11T14:45:06;2.27;;;2.00;;
15425;SDS011;7812;50.072;7.036;2022-08-11T14:47:55;3.00;;;1.97;;
15425;SDS011;7812;50.072;7.036;2022-08-11T14:50:28;5.23;;;1.90;;
15425;SDS011;7812;50.072;7.036;2022-08-11T14:53:01;3.23;;;1.90;;
15425;SDS011;7812;50.072;7.036;2022-08-11T14:55:29;3.40;;;1.93;;
15425;SDS011;7812;50.072;7.036;2022-08-11T14:58:19;2.90;;;1.90;;
15425;SDS011;7812;50.072;7.036;2022-08-11T15:00:57;2.63;;;1.80;;
15425;SDS011;7812;50.072;7.036;2022-08-11T15:03:25;3.33;;;2.00;;
15425;SDS011;7812;50.072;7.036;2022-08-11T15:05:56;2.10;;;1.90;;
15425;SDS011;7812;50.072;7.036;2022-08-11T15:08:30;2.97;;;2.07;;
15425;SDS011;7812;50.072;7.036;2022-08-11T15:11:17;2.43;;;2.00;;
15425;SDS011;7812;50.072;7.036;2022-08-11T15:14:06;4.17;;;2.00;;
15425;SDS011;7812;50.072;7.036;2022-08-11T15:16:35;2.70;;;1.73;;
15425;SDS011;7812;50.072;7.036;2022-08-11T15:19:22;4.40;;;1.83;;
15425;SDS011;7812;50.072;7.036;2022-08-11T15:21:49;4.27;;;2.03;;
15425;SDS011;7812;50.072;7.036;2022-08-11T15:24:33;4.20;;;1.90;;
15425;SDS011;7812;50.072;7.036;2022-08-11T15:27:00;2.23;;;1.80;;
15425;SDS011;7812;50.072;7.036;2022-08-11T15:29:56;2.27;;;1.90;;
15425;SDS011;7812;50.072;7.036;2022-08-11T15:32:42;2.93;;;2.40;;
15425;SDS011;7812;50.072;7.036;2022-08-11T15:35:28;3.50;;;1.90;;
15425;SDS011;7812;50.072;7.036;2022-08-11T15:38:13;2.57;;;2.10;;
15425;SDS011;7812;50.072;7.036;2022-08-11T15:40:41;3.33;;;2.07;;
15425;SDS011;7812;50.072;7.036;2022-08-11T15:43:37;3.27;;;2.23;;
15425;SDS011;7812;50.072;7.036;2022-08-11T15:46:29;3.73;;;2.07;;
15425;SDS011;7812;50.072;7.036;2022-08-11T15:49:33;3.77;;;2.00;;
15425;SDS011;7812;50.072;7.036;2022-08-11T15:52:02;3.70;;;1.70;;
15425;SDS011;7812;50.072;7.036;2022-08-11T15:54:33;4.10;;;2.10;;
15425;SDS011;7812;50.072;7.036;2022-08-11T15:57:02;1.90;;;1.80;;
15425;SDS011;7812;50.072;7.036;2022-08-11T15:59:34;3.73;;;2.00;;
15425;SDS011;7812;50.072;7.036;2022-08-11T16:02:21;2.60;;;2.17;;
15425;SDS011;7812;50.072;7.036;2022-08-11T16:04:49;2.30;;;2.10;;
15425;SDS011;7812;50.072;7.036;2022-08-11T16:07:18;1.90;;;1.70;;
15425;SDS011;7812;50.072;7.036;2022-08-11T16:10:06;3.77;;;2.10;;
15425;SDS011;7812;50.072;7.036;2022-08-11T16:12:36;2.67;;;1.90;;
15425;SDS011;7812;50.072;7.036;2022-08-11T16:15:48;2.40;;;1.77;;
15425;SDS011;7812;50.072;7.036;2022-08-11T16:18:38;2.80;;;1.87;;
15425;SDS011;7812;50.072;7.036;2022-08-11T16:21:31;3.10;;;1.90;;
15425;SDS011;7812;50.072;7.036;2022-08-11T16:23:58;4.03;;;1.90;;
15425;SDS011;7812;50.072;7.036;2022-08-11T16:26:25;2.63;;;2.00;;
15425;SDS011;7812;50.072;7.036;2022-08-11T16:28:54;3.43;;;1.97;;
15425;SDS011;7812;50.072;7.036;2022-08-11T16:31:21;2.13;;;1.70;;
15425;SDS011;7812;50.072;7.036;2022-08-11T16:33:49;2.23;;;2.03;;
15425;SDS011;7812;50.072;7.036;2022-08-11T16:36:19;2.40;;;2.00;;
15425;SDS011;7812;50.072;7.036;2022-08-11T16:39:06;2.00;;;1.90;;
15425;SDS011;7812;50.072;7.036;2022-08-11T16:41:35;2.67;;;1.80;;
15425;SDS011;7812;50.072;7.036;2022-08-11T16:44:22;2.00;;;1.70;;
15425;SDS011;7812;50.072;7.036;2022-08-11T16:47:09;2.67;;;1.83;;
15425;SDS011;7812;50.072;7.036;2022-08-11T16:49:44;4.23;;;1.83;;
15425;SDS011;7812;50.072;7.036;2022-08-11T16:52:13;3.40;;;1.80;;
15425;SDS011;7812;50.072;7.036;2022-08-11T16:54:41;2.20;;;1.90;;
15425;SDS011;7812;50.072;7.036;2022-08-11T16:57:23;2.83;;;1.87;;
15425;SDS011;7812;50.072;7.036;2022-08-11T17:00:10;5.33;;;2.00;;
15425;SDS011;7812;50.072;7.036;2022-08-11T17:02:40;3.53;;;1.77;;
15425;SDS011;7812;50.072;7.036;2022-08-11T17:05:33;2.67;;;2.00;;
15425;SDS011;7812;50.072;7.036;2022-08-11T17:08:19;2.03;;;1.70;;
15425;SDS011;7812;50.072;7.036;2022-08-11T17:11:12;3.57;;;1.93;;
15425;SDS011;7812;50.072;7.036;2022-08-11T17:13:58;2.57;;;1.67;;
15425;SDS011;7812;50.072;7.036;2022-08-11T17:16:31;2.73;;;2.07;;
15425;SDS011;7812;50.072;7.036;2022-08-11T17:19:02;3.67;;;1.70;;
15425;SDS011;7812;50.072;7.036;2022-08-11T17:24:28;2.93;;;1.80;;
15425;SDS011;7812;50.072;7.036;2022-08-11T17:26:56;2.10;;;1.90;;
15425;SDS011;7812;50.072;7.036;2022-08-11T17:32:15;3.47;;;1.60;;
15425;SDS011;7812;50.072;7.036;2022-08-11T17:35:03;2.57;;;2.00;;
15425;SDS011;7812;50.072;7.036;2022-08-11T17:37:52;4.00;;;1.93;;
15425;SDS011;7812;50.072;7.036;2022-08-11T17:40:20;4.00;;;1.80;;
15425;SDS011;7812;50.072;7.036;2022-08-11T17:42:49;5.30;;;2.23;;
15425;SDS011;7812;50.072;7.036;2022-08-11T17:45:38;4.47;;;1.90;;
15425;SDS011;7812;50.072;7.036;2022-08-11T17:48:25;2.00;;;1.80;;
15425;SDS011;7812;50.072;7.036;2022-08-11T17:50:58;4.77;;;2.00;;
15425;SDS011;7812;50.072;7.036;2022-08-11T17:53:28;2.50;;;1.77;;
15425;SDS011;7812;50.072;7.036;2022-08-11T17:56:17;2.40;;;2.03;;
15425;SDS011;7812;50.072;7.036;2022-08-11T17:59:04;2.83;;;2.00;;
15425;SDS011;7812;50.072;7.036;2022-08-11T18:01:51;2.20;;;2.00;;
15425;SDS011;7812;50.072;7.036;2022-08-11T18:04:20;3.10;;;2.00;;
15425;SDS011;7812;50.072;7.036;2022-08-11T18:06:46;3.20;;;1.90;;
15425;SDS011;7812;50.072;7.036;2022-08-11T18:09:18;2.00;;;1.73;;
15425;SDS011;7812;50.072;7.036;2022-08-11T18:12:05;3.23;;;1.90;;
15425;SDS011;7812;50.072;7.036;2022-08-11T18:14:52;3.57;;;2.00;;
15425;SDS011;7812;50.072;7.036;2022-08-11T18:17:38;1.97;;;1.83;;
15425;SDS011;7812;50.072;7.036;2022-08-11T18:20:23;2.10;;;1.80;;
15425;SDS011;7812;50.072;7.036;2022-08-11T18:23:10;5.90;;;1.90;;
15425;SDS011;7812;50.072;7.036;2022-08-11T18:26:00;3.37;;;2.07;;
15425;SDS011;7812;50.072;7.036;2022-08-11T18:28:49;1.83;;;1.70;;
15425;SDS011;7812;50.072;7.036;2022-08-11T18:31:50;2.23;;;1.90;;
15425;SDS011;7812;50.072;7.036;2022-08-11T18:34:39;3.10;;;2.27;;
15425;SDS011;7812;50.072;7.036;2022-08-11T18:37:30;2.70;;;2.13;;
15425;SDS011;7812;50.072;7.036;2022-08-11T18:40:17;2.60;;;1.90;;
15425;SDS011;7812;50.072;7.036;2022-08-11T18:43:06;2.17;;;1.97;;
15425;SDS011;7812;50.072;7.036;2022-08-11T18:45:59;2.50;;;1.97;;
15425;SDS011;7812;50.072;7.036;2022-08-11T18:48:48;2.57;;;1.80;;
15425;SDS011;7812;50.072;7.036;2022-08-11T18:51:35;3.70;;;2.10;;
15425;SDS011;7812;50.072;7.036;2022-08-11T18:54:22;2.87;;;2.30;;
15425;SDS011;7812;50.072;7.036;2022-08-11T18:57:08;2.03;;;1.83;;
15425;SDS011;7812;50.072;7.036;2022-08-11T18:59:53;3.40;;;2.10;;
15425;SDS011;7812;50.072;7.036;2022-08-11T19:02:42;2.23;;;1.97;;
15425;SDS011;7812;50.072;7.036;2022-08-11T19:05:30;3.00;;;2.00;;
15425;SDS011;7812;50.072;7.036;2022-08-11T19:08:17;2.50;;;2.07;;
15425;SDS011;7812;50.072;7.036;2022-08-11T19:11:04;5.30;;;1.90;;
15425;SDS011;7812;50.072;7.036;2022-08-11T19:13:50;2.47;;;1.90;;
15425;SDS011;7812;50.072;7.036;2022-08-11T19:16:35;2.90;;;2.20;;
15425;SDS011;7812;50.072;7.036;2022-08-11T19:19:21;3.23;;;1.90;;
15425;SDS011;7812;50.072;7.036;2022-08-11T19:22:26;2.47;;;2.27;;
15425;SDS011;7812;50.072;7.036;2022-08-11T19:25:12;4.87;;;2.10;;
15425;SDS011;7812;50.072;7.036;2022-08-11T19:27:59;3.03;;;2.30;;
15425;SDS011;7812;50.072;7.036;2022-08-11T19:30:47;2.27;;;2.07;;
15425;SDS011;7812;50.072;7.036;2022-08-11T19:33:33;1.93;;;1.80;;
15425;SDS011;7812;50.072;7.036;2022-08-11T19:36:18;3.03;;;2.30;;